^^
Datos históricos de la estación: Murcia-Puente Tocinos
Diario Informe para Abril 20, 2019 Unidades:  Ingés    Métrico   Ambas
Diario Semanal Mensual Anual
  Máxima: Mínima: Promedio:
Temperatura: 89.6 °F 74.5 °F 81.7 °F
Punto de rocio: 71.2 °F 57.4 °F 65.5 °F
Humedad: 77% 39.9% 59%
Velocidad viento: 13.7mph 0mph 6.3mph
Racha viento: 26.5mph - -
Viento- - SE
Presión: 30 in 29.9 in -
Precipitación: 0 in    
 
 
Tabla de datos para Abril 20, 2019
Hora Temperatura Punto de rocio Presión Viento Velocidad viento Racha viento Humedad Intensidad lluvia(por hora) Nubes
00:04 78.1 °F 69.4 °F 29.9 in NNO 2.4 mph 5 mph 75% 0 in
00:09 78.1 °F 69.8 °F 29.9 in NNO 2.3 mph 5 mph 75.7% 0 in
00:14 78.1 °F 70 °F 29.9 in NO 2 mph 5 mph 76% 0 in
00:19 78.1 °F 69.8 °F 29.9 in NNO 1.9 mph 5.2 mph 76% 0 in
00:24 78.1 °F 69.8 °F 29.9 in NNO 1.4 mph 5 mph 76% 0 in
00:29 77.9 °F 69.6 °F 29.9 in North 1.7 mph 5.2 mph 76% 0 in
00:34 77.7 °F 69.4 °F 29.9 in NNE 2.4 mph 5.2 mph 76% 0 in
00:39 77.7 °F 69.4 °F 29.9 in NNE 2.6 mph 5 mph 76% 0 in
00:44 77.5 °F 69.8 °F 29.9 in North 3.1 mph 5 mph 76.9% 0 in
00:49 77.5 °F 69.8 °F 29.9 in NNO 2.8 mph 5 mph 77% 0 in
00:54 77.5 °F 69.8 °F 29.9 in NNO 2 mph 5 mph 77% 0 in
00:59 77.5 °F 69.8 °F 29.9 in North 2.1 mph 5 mph 77% 0 in
01:04 77.5 °F 69.8 °F 29.9 in North 2.4 mph 5 mph 77% 0 in
01:09 77.5 °F 69.8 °F 29.9 in North 2.4 mph 5 mph 77% 0 in
01:14 77.5 °F 69.8 °F 29.9 in NNE 2.4 mph 5 mph 77% 0 in
01:19 77.4 °F 69.6 °F 29.9 in NE 2.5 mph 5 mph 77% 0 in
01:24 77.4 °F 69.6 °F 29.9 in ENE 2.9 mph 5 mph 77% 0 in
01:29 77.4 °F 69.6 °F 29.9 in ENE 2.7 mph 5 mph 77% 0 in
01:34 77.4 °F 69.6 °F 29.9 in North 2 mph 4.6 mph 77% 0 in
01:39 77.5 °F 69.8 °F 29.9 in NNO 2 mph 5 mph 77% 0 in
01:44 77.5 °F 69.8 °F 29.9 in NNO 2 mph 4 mph 77% 0 in
01:49 77.5 °F 69.8 °F 29.9 in NNO 1.9 mph 4 mph 77% 0 in
01:54 77.5 °F 69.6 °F 29.9 in NO 1.8 mph 4 mph 76.9% 0 in
01:59 77.5 °F 69.3 °F 29.9 in NO 1.9 mph 5 mph 76% 0 in
02:04 77.5 °F 69.4 °F 29.9 in ONO 2 mph 4 mph 76% 0 in
02:09 77.5 °F 69.4 °F 29.9 in ONO 1.9 mph 3.6 mph 76% 0 in
02:14 77.5 °F 69.4 °F 29.9 in ONO 1.8 mph 4 mph 76% 0 in
02:19 77.5 °F 69.1 °F 29.9 in ONO 1.4 mph 2 mph 75.2% 0 in
02:24 77.7 °F 69.1 °F 29.9 in Calm     75% 0 in
02:29 77.7 °F 69.3 °F 29.9 in Calm   2.9 mph 75% 0 in
02:34 77.7 °F 68.9 °F 29.9 in Calm   3 mph 74.4% 0 in
02:39 77.7 °F 68.7 °F 29.9 in Calm   2.3 mph 74% 0 in
02:44 77.7 °F 68.7 °F 29.9 in Calm   2.3 mph 74% 0 in
02:49 77.7 °F 68.7 °F 29.9 in Calm   2.4 mph 74% 0 in
02:54 77.7 °F 68.7 °F 29.9 in Calm   4.6 mph 74% 0 in
02:59 77.5 °F 68.7 °F 29.9 in ONO 0.4 mph 5 mph 74% 0 in
03:04 77.5 °F 68.5 °F 29.9 in NO 1.4 mph 4.6 mph 74% 0 in
03:09 77.4 °F 68.2 °F 29.9 in ONO 1.6 mph 5 mph 73.4% 0 in
03:14 77.4 °F 68 °F 29.9 in ONO 2 mph 5 mph 73% 0 in
03:19 77.2 °F 67.8 °F 29.9 in ONO 2 mph 5 mph 73% 0 in
03:24 77.2 °F 67.8 °F 29.9 in ONO 2 mph 4.6 mph 73% 0 in
03:29 77.2 °F 67.5 °F 29.9 in Oeste 1.8 mph 5 mph 72% 0 in
03:34 77.2 °F 67.3 °F 29.9 in Oeste 1.4 mph 4 mph 71.5% 0 in
03:39 77.2 °F 66.9 °F 29.9 in Oeste 1.4 mph 3.5 mph 71% 0 in
03:44 77.2 °F 66.9 °F 29.9 in Oeste 1.4 mph 4.6 mph 71% 0 in
03:49 77.2 °F 66.7 °F 29.9 in Oeste 1.4 mph 5 mph 70.2% 0 in
03:54 77.4 °F 66.9 °F 29.9 in Oeste 1.4 mph   70.2% 0 in
03:59 77.4 °F 66.7 °F 29.9 in Oeste 1 mph   70% 0 in
04:04 77.4 °F 66.7 °F 29.9 in Calm     70% 0 in
04:09 77.4 °F 67.3 °F 29.9 in Calm     71% 0 in
04:14 77.4 °F 67.1 °F 29.9 in Calm     71.1% 0 in
04:19 77.2 °F 67.5 °F 29.9 in Calm     72% 0 in
04:24 77.2 °F 67.6 °F 29.9 in Calm     72.3% 0 in
04:29 77 °F 67.8 °F 29.9 in Calm   4.7 mph 73% 0 in
04:34 76.8 °F 67.8 °F 29.9 in Calm   5.8 mph 73.9% 0 in
04:39 76.8 °F 67.8 °F 29.9 in SO 0.6 mph 6 mph 74% 0 in
04:44 76.8 °F 67.8 °F 29.9 in SO 2.4 mph 5 mph 74% 0 in
04:49 76.6 °F 67.8 °F 29.9 in OSO 2.4 mph 5 mph 74% 0 in
04:54 76.6 °F 67.6 °F 29.9 in OSO 2.4 mph 5.2 mph 74% 0 in
04:59 76.5 °F 67.6 °F 29.9 in OSO 2.5 mph 6.9 mph 74% 0 in
05:04 76.5 °F 67.5 °F 29.9 in OSO 2.9 mph 7.6 mph 73.8% 0 in
05:09 76.3 °F 66.9 °F 29.9 in OSO 3.4 mph 8.1 mph 73% 0 in
05:14 76.1 °F 66.7 °F 29.9 in SO 4.7 mph 8 mph 73% 0 in
05:19 75.9 °F 66.6 °F 29.9 in SO 4.5 mph 7 mph 72.8% 0 in
05:24 75.9 °F 66.2 °F 29.9 in SO 4 mph 7 mph 72.1% 0 in
05:29 75.7 °F 66.4 °F 29.9 in SO 4 mph 6 mph 72.8% 0 in
05:34 75.7 °F 66.2 °F 29.9 in SO 4 mph 8.1 mph 72.1% 0 in
05:39 75.7 °F 66 °F 29.9 in SO 4.1 mph 8 mph 72% 0 in
05:44 75.7 °F 66 °F 29.9 in SO 4.3 mph 7 mph 72% 0 in
05:49 75.7 °F 65.8 °F 29.9 in SSO 4.2 mph 6.2 mph 71.2% 0 in
05:54 75.7 °F 65.7 °F 29.9 in SO 4 mph 6 mph 70.7% 0 in
05:59 75.6 °F 65.1 °F 29.9 in OSO 3.9 mph 6.9 mph 69.8% 0 in
06:04 75.6 °F 64.8 °F 29.9 in OSO 3.6 mph 7.4 mph 69% 0 in
06:09 75.6 °F 64.9 °F 29.9 in SO 3.7 mph 7 mph 69.7% 0 in
06:14 75.4 °F 64.9 °F 29.9 in SSO 4 mph 8.1 mph 70% 0 in
06:19 75.2 °F 64.8 °F 29.9 in SSO 4.2 mph 8 mph 70% 0 in
06:24 75 °F 64.6 °F 29.9 in SO 4.7 mph 8.1 mph 70.2% 0 in
06:29 74.8 °F 64.4 °F 29.9 in SSO 4.6 mph 8 mph 70.1% 0 in
06:34 74.8 °F 64.4 °F 29.9 in SO 4.3 mph 8.1 mph 70% 0 in
06:39 74.7 °F 64.2 °F 29.9 in SSO 4.3 mph 9.2 mph 70% 0 in
06:44 74.7 °F 63.9 °F 29.9 in SSO 4.3 mph 10.4 mph 69.2% 0 in
06:49 74.7 °F 63.9 °F 29.9 in SO 4.5 mph 10 mph 69% 0 in
06:54 74.7 °F 63.9 °F 29.9 in SO 5.2 mph 8.1 mph 69% 0 in
06:59 74.7 °F 63.7 °F 29.9 in SO 5.2 mph 9.2 mph 68.5% 0 in
07:04 74.7 °F 63.3 °F 29.9 in SO 5.2 mph 9 mph 68% 0 in
07:09 74.7 °F 63 °F 29.9 in OSO 5.2 mph 8.5 mph 66.9% 0 in
07:14 74.5 °F 62.4 °F 29.9 in OSO 5.2 mph 9 mph 66% 0 in
07:19 74.5 °F 62.4 °F 29.9 in OSO 5 mph 8 mph 66.1% 0 in
07:24 74.5 °F 62.4 °F 29.9 in OSO 4.7 mph 6 mph 66% 0 in
07:29 74.5 °F 62.4 °F 29.9 in Oeste 4.4 mph 6 mph 66% 0 in
07:34 74.5 °F 62.4 °F 29.9 in Oeste 3.6 mph 5 mph 66% 0 in
07:39 74.5 °F 62.2 °F 29.9 in OSO 3.4 mph 5 mph 65.6% 0 in
07:44 74.5 °F 61.9 °F 29.9 in Oeste 2.9 mph 5 mph 65% 0 in
07:49 74.5 °F 61.9 °F 29.9 in Oeste 2.7 mph 5 mph 65% 0 in
07:54 74.7 °F 62.1 °F 29.9 in OSO 2 mph 4.6 mph 65% 0 in
07:59 74.7 °F 62.1 °F 29.9 in Oeste 2 mph 5.4 mph 65% 0 in
08:04 74.8 °F 62.1 °F 29.9 in OSO 2 mph 7.4 mph 64.6% 0 in
08:09 74.8 °F 61.9 °F 29.9 in OSO 2.4 mph 7 mph 64% 0 in
08:14 75 °F 61.9 °F 29.9 in OSO 3.6 mph 6 mph 63.6% 0 in
08:19 75.4 °F 61.3 °F 29.9 in OSO 3.6 mph 7.4 mph 61.6% 0 in
08:24 75.6 °F 61.2 °F 29.9 in OSO 3.6 mph 8.1 mph 61% 0 in
08:29 75.7 °F 60.6 °F 29.9 in SO 3.7 mph 8 mph 59.3% 0 in
08:34 75.9 °F 60.3 °F 29.9 in OSO 4 mph 6 mph 58.4% 0 in
08:39 76.3 °F 60.6 °F 29.9 in Oeste 3.8 mph 6 mph 58.3% 0 in
08:44 76.5 °F 60.6 °F 29.9 in OSO 3.1 mph 5 mph 58.1% 0 in
08:49 76.5 °F 60.6 °F 29.9 in OSO 3.1 mph 5.8 mph 58% 0 in
08:54 76.6 °F 60.4 °F 29.9 in SO 3.1 mph 6 mph 57.3% 0 in
08:59 77 °F 60.3 °F 29.9 in Sur 3.2 mph 7.4 mph 56.1% 0 in
09:04 77.2 °F 59.7 °F 29.9 in SSO 3.6 mph 7 mph 55% 0 in
09:09 77.4 °F 59.7 °F 29.9 in OSO 3.8 mph 7.4 mph 54.6% 0 in
09:14 77.5 °F 59.5 °F 29.9 in Oeste 4.3 mph 7 mph 54% 0 in
09:19 77.9 °F 59.9 °F 29.9 in Oeste 4 mph 7 mph 54% 0 in
09:24 78.3 °F 60.3 °F 29.9 in Oeste 3.1 mph 6.9 mph 54% 0 in
09:29 78.4 °F 60.3 °F 29.9 in SO 3.2 mph 7 mph 53.9% 0 in
09:34 78.4 °F 60.1 °F 29.9 in SO 3.6 mph 6 mph 53.5% 0 in
09:39 78.6 °F 60.3 °F 29.9 in SSO 3.2 mph 5 mph 53.4% 0 in
09:44 79.2 °F 60.3 °F 29.9 in SO 2 mph 5.9 mph 52.6% 0 in
09:49 79.3 °F 60.3 °F 29.9 in OSO 2.3 mph 6 mph 52% 0 in
09:54 79.5 °F 59.9 °F 29.9 in SSO 3.1 mph 7.6 mph 51.2% 0 in
09:59 79.9 °F 60.1 °F 29.9 in SSO 3.5 mph 8.1 mph 50.9% 0 in
10:04 80.1 °F 59.7 °F 29.9 in SSE 4.3 mph 8.5 mph 50% 0 in
10:09 80.2 °F 59.9 °F 29.9 in Sur 4.5 mph 9.2 mph 49.8% 0 in
10:14 80.8 °F 59.7 °F 29.9 in SO 5.2 mph 9 mph 49.1% 0 in
10:19 81.1 °F 59.9 °F 29.9 in Sur 5 mph 9.2 mph 48.7% 0 in
10:24 81.1 °F 60.1 °F 29.9 in Sur 4.3 mph 9.2 mph 49% 0 in
10:29 81.1 °F 60.3 °F 29.9 in SO 4.5 mph 9 mph 49% 0 in
10:34 81.5 °F 59.9 °F 29.9 in SO 5.2 mph 7 mph 48.1% 0 in
10:39 82 °F 60.1 °F 29.9 in OSO 4.6 mph 5.2 mph 47.5% 0 in
10:44 82.6 °F 59.7 °F 29.9 in NO 2.9 mph 6.2 mph 45.9% 0 in
10:49 82.9 °F 59.2 °F 29.9 in OSO 2.7 mph 6 mph 44.5% 0 in
10:54 83.7 °F 57.7 °F 29.9 in SSE 2.4 mph 5 mph 41.4% 0 in
10:59 84.4 °F 57.4 °F 29.9 in SSO 2.3 mph 5.9 mph 39.9% 0 in
11:04 84.7 °F 58.1 °F 29.9 in ESE 2 mph 6 mph 40.6% 0 in
11:09 85.5 °F 58.3 °F 29.9 in ONO 2 mph 5 mph 40% 0 in
11:14 86 °F 58.8 °F 29.9 in SE 2 mph 6.9 mph 40% 0 in
11:19 86.2 °F 59.4 °F 29.9 in ENE 2.3 mph 7 mph 40.4% 0 in
11:24 86.2 °F 59.7 °F 29.9 in NE 3.1 mph 8.1 mph 41.1% 0 in
11:29 86 °F 60.1 °F 29.9 in NE 3.7 mph 10.4 mph 41.7% 0 in
11:34 85.6 °F 59.9 °F 29.9 in NE 5.2 mph 10 mph 42.1% 0 in
11:39 85.5 °F 60.1 °F 29.9 in Este 5.2 mph 8 mph 42.3% 0 in
11:44 85.8 °F 60.3 °F 29.9 in NE 5.2 mph 9.2 mph 42.2% 0 in
11:49 85.8 °F 60.1 °F 29.9 in ENE 5.2 mph 9 mph 42.1% 0 in
11:54 86 °F 60.4 °F 29.9 in NE 5.2 mph 8.5 mph 42.2% 0 in
11:59 86.5 °F 61 °F 29.9 in ENE 4.7 mph 9 mph 42.4% 0 in
12:04 87.1 °F 60.8 °F 29.9 in Este 3.6 mph 7 mph 41.5% 0 in
12:09 87.4 °F 61.3 °F 29.9 in NE 3.7 mph 10.7 mph 41.5% 0 in
12:14 87.6 °F 61.2 °F 29.9 in NE 4 mph 11.4 mph 41.1% 0 in
12:19 87.8 °F 61.3 °F 29.9 in NE 4.8 mph 13.8 mph 41.2% 0 in
12:24 87.6 °F 61.7 °F 29.9 in NNE 6.9 mph 14 mph 41.8% 0 in
12:29 87.8 °F 61.9 °F 29.9 in NNE 7 mph 14 mph 42% 0 in
12:34 88 °F 62.1 °F 29.9 in NE 7.4 mph 13 mph 42.1% 0 in
12:39 88.2 °F 62.4 °F 29.9 in NE 7.1 mph 14 mph 42.4% 0 in
12:44 88.3 °F 62.6 °F 29.9 in NNE 6.2 mph 14 mph 42.4% 0 in
12:49 88.7 °F 63 °F 29.9 in NE 6.2 mph 12 mph 42.4% 0 in
12:54 88.9 °F 62.4 °F 29.9 in NE 6.2 mph 17.5 mph 41.2% 0 in
12:59 89.1 °F 62.1 °F 29.9 in NE 7.3 mph 20.8 mph 40.6% 0 in
13:04 89.1 °F 61.9 °F 29.9 in ENE 9.7 mph 21 mph 40.4% 0 in
13:09 89.2 °F 62.2 °F 29.9 in NE 10.1 mph 19.6 mph 40.6% 0 in
13:14 89.2 °F 62.6 °F 29.9 in NNE 11.4 mph 21.3 mph 41% 0 in
13:19 89.4 °F 62.2 °F 29.9 in NE 11.2 mph 21 mph 40.5% 0 in
13:24 89.4 °F 62.4 °F 29.9 in NE 10.7 mph 17.8 mph 40.8% 0 in
13:29 89.6 °F 62.8 °F 29.9 in NE 10.4 mph 20 mph 41.1% 0 in
13:34 89.4 °F 64.4 °F 29.9 in ENE 9.7 mph 20 mph 43.7% 0 in
13:39 89.4 °F 65.3 °F 29.9 in Este 9.8 mph 20.7 mph 45% 0 in
13:44 89.1 °F 65.3 °F 29.9 in ENE 10.2 mph 21 mph 45.5% 0 in
13:49 88.5 °F 65.3 °F 29.9 in ENE 10.1 mph 21 mph 46.4% 0 in
13:54 88.5 °F 65.7 °F 29.9 in NE 9.7 mph 21 mph 47% 0 in
13:59 88.3 °F 65.5 °F 29.9 in ENE 10 mph 21.9 mph 46.8% 0 in
14:04 88.2 °F 65.8 °F 29.9 in ENE 10.7 mph 26.1 mph 47.7% 0 in
14:09 87.8 °F 66 °F 29.9 in ENE 10.7 mph 26.5 mph 48.4% 0 in
14:14 87.8 °F 66.6 °F 29.9 in ENE 10.7 mph 24.2 mph 49.5% 0 in
14:19 87.4 °F 67.1 °F 29.9 in ENE 11 mph 24 mph 50.8% 0 in
14:24 87.8 °F 67.5 °F 29.9 in NE 11.8 mph 24 mph 51% 0 in
14:29 87.1 °F 67.5 °F 29.9 in NE 12 mph 23.5 mph 52.3% 0 in
14:34 86.7 °F 67.3 °F 29.9 in NE 12.5 mph 23 mph 52.6% 0 in
14:39 86.7 °F 68 °F 29.9 in ENE 12.8 mph 25.6 mph 53.8% 0 in
14:44 87.1 °F 68.5 °F 29.9 in NE 13.5 mph 26 mph 54.2% 0 in
14:49 87.3 °F 68.7 °F 29.9 in NE 12.9 mph 21.9 mph 54.3% 0 in
14:54 87.1 °F 68.5 °F 29.9 in ENE 11.2 mph 22 mph 54.4% 0 in
14:59 87.1 °F 69.1 °F 29.9 in Este 11.2 mph 25.3 mph 55% 0 in
15:04 87.3 °F 68.9 °F 29.9 in NE 11.2 mph 25 mph 54.7% 0 in
15:09 86.9 °F 68.9 °F 29.9 in NE 11.7 mph 23 mph 55.3% 0 in
15:14 86.5 °F 69.1 °F 29.9 in ENE 13 mph 22 mph 56% 0 in
15:19 86.9 °F 69.3 °F 29.9 in NE 12.7 mph 22 mph 56% 0 in
15:24 86.9 °F 69.8 °F 29.9 in NE 11.8 mph 20.7 mph 57.1% 0 in
15:29 86.7 °F 70.2 °F 29.9 in ENE 11.8 mph 21.3 mph 58.1% 0 in
15:34 86.4 °F 70 °F 29.9 in NE 11.8 mph 25.6 mph 58.4% 0 in
15:39 85.6 °F 70.3 °F 29.9 in NE 12.4 mph 26 mph 60.4% 0 in
15:44 86.2 °F 71.1 °F 29.9 in ENE 13.7 mph 25 mph 60.8% 0 in
15:49 86.4 °F 70.9 °F 29.9 in NE 13.2 mph 24.2 mph 60.2% 0 in
15:54 85.6 °F 70.7 °F 29.9 in NE 11.8 mph 24 mph 61% 0 in
15:59 86 °F 71.1 °F 29.9 in NE 11.4 mph 19 mph 61% 0 in
16:04 85.8 °F 70.9 °F 29.9 in NE 10.7 mph 22.3 mph 61.1% 0 in
16:09 85.6 °F 71.2 °F 29.9 in NE 11.1 mph 22.3 mph 62% 0 in
16:14 85.6 °F 71.1 °F 29.9 in NE 12.3 mph 22 mph 62.1% 0 in
16:19 85.6 °F 71.2 °F 29.9 in NE 12.2 mph 21 mph 62% 0 in
16:24 85.6 °F 71.1 °F 29.9 in NE 11.8 mph 21.3 mph 62% 0 in
16:29 85.6 °F 71.1 °F 29.9 in NE 11.9 mph 21.9 mph 62% 0 in
16:34 85.5 °F 70.9 °F 29.9 in NE 12.3 mph 22 mph 62% 0 in
16:39 85.5 °F 71.1 °F 29.9 in NE 12.4 mph 21 mph 62.3% 0 in
16:44 85.5 °F 71.1 °F 29.9 in NE 12.5 mph 22.3 mph 62% 0 in
16:49 85.5 °F 70.5 °F 29.9 in NE 12.3 mph 22 mph 61% 0 in
16:54 85.6 °F 70.5 °F 29.9 in ENE 11.8 mph 20.7 mph 61% 0 in
16:59 85.8 °F 70.5 °F 29.9 in NE 11.3 mph 21 mph 60.1% 0 in
17:04 86.2 °F 70 °F 29.9 in NE 10.2 mph 23 mph 58.5% 0 in
17:09 86 °F 69.4 °F 29.9 in NE 10.8 mph 23 mph 58% 0 in
17:14 85.8 °F 69.3 °F 29.9 in NE 12.5 mph 21 mph 58.1% 0 in
17:19 86.4 °F 69.3 °F 29.9 in NE 12.2 mph 20 mph 57.1% 0 in
17:24 86.4 °F 68.9 °F 29.9 in NE 11.2 mph 20.7 mph 56% 0 in
17:29 86.4 °F 68.2 °F 29.9 in NE 11.4 mph 21.5 mph 54.8% 0 in
17:34 86.4 °F 68.2 °F 29.9 in NE 11.8 mph 22 mph 55% 0 in
17:39 86.2 °F 68 °F 29.9 in NE 12.2 mph 23 mph 54.9% 0 in
17:44 86.4 °F 67.6 °F 29.9 in NE 13.5 mph 23 mph 53.9% 0 in
17:49 86.5 °F 67.3 °F 29.9 in NE 13.2 mph 22.5 mph 53% 0 in
17:54 86.7 °F 67.6 °F 29.9 in NE 12.5 mph 23 mph 53% 0 in
17:59 86.9 °F 67.8 °F 29.9 in NE 12.2 mph 23 mph 53% 0 in
18:04 86.9 °F 67.1 °F 29.9 in NE 11.4 mph 21 mph 51.8% 0 in
18:09 87.1 °F 67.6 °F 29.9 in NE 11.2 mph 20 mph 52.5% 0 in
18:14 87.1 °F 67.1 °F 29.9 in NE 10.7 mph 20.1 mph 51.6% 0 in
18:19 86.7 °F 66.2 °F 29.9 in NE 11.1 mph 20 mph 50.7% 0 in
18:24 86.5 °F 66.6 °F 29.9 in NE 12.3 mph 22.3 mph 51.5% 0 in
18:29 86.5 °F 66.2 °F 29.9 in NE 12.4 mph 22.5 mph 50.7% 0 in
18:34 86.7 °F 65.8 °F 29.9 in NE 12.5 mph 23 mph 49.8% 0 in
18:39 86.7 °F 65.8 °F 29.9 in NE 12.5 mph 20.7 mph 49.8% 0 in
18:44 86.5 °F 65.7 °F 29.9 in NE 12.5 mph 21 mph 49.8% 0 in
18:49 86.7 °F 64.8 °F 29.9 in NE 12.6 mph 24.2 mph 48.2% 0 in
18:54 86.7 °F 64.4 °F 29.9 in NE 13 mph 24 mph 47.5% 0 in
18:59 87.1 °F 63.5 °F 29.9 in NE 12.6 mph 20.1 mph 45.7% 0 in
19:04 87.3 °F 63 °F 29.9 in NE 11.8 mph 21 mph 44.5% 0 in
19:09 87.4 °F 63.1 °F 29.9 in NE 11.7 mph 21 mph 44.5% 0 in
19:14 87.6 °F 63.3 °F 29.9 in ENE 11.4 mph 19 mph 44.6% 0 in
19:19 87.8 °F 63.3 °F 29.9 in ENE 10.7 mph 18 mph 44.1% 0 in
19:24 87.8 °F 63.3 °F 29.9 in NE 8.5 mph 15 mph 44.1% 0 in
19:29 87.6 °F 63.5 °F 29.9 in NE 8.8 mph 15.2 mph 44.6% 0 in
19:34 87.8 °F 63.1 °F 29.9 in NE 9.7 mph 16.3 mph 44% 0 in
19:39 87.4 °F 63.7 °F 29.9 in ENE 9.4 mph 16 mph 45.1% 0 in
19:44 87.3 °F 63.5 °F 29.9 in ENE 8.5 mph 18.5 mph 45.1% 0 in
19:49 87.1 °F 63 °F 29.9 in NE 8.9 mph 19 mph 44.7% 0 in
19:54 86.7 °F 63.1 °F 29.9 in NE 10 mph 21.9 mph 45.4% 0 in
19:59 86.5 °F 63.3 °F 29.9 in NE 9.9 mph 22 mph 46% 0 in
20:04 86.5 °F 63.1 °F 29.9 in NE 9.7 mph 19.7 mph 46% 0 in
20:09 86.2 °F 63.5 °F 29.9 in NE 9.7 mph 20.7 mph 46.9% 0 in
20:14 85.6 °F 63.9 °F 29.9 in ENE 9.7 mph 21 mph 48.3% 0 in
20:19 85.5 °F 64 °F 29.9 in NE 9.6 mph 16.1 mph 49% 0 in
20:24 85.3 °F 64 °F 29.9 in NE 9.2 mph 17.3 mph 49.3% 0 in
20:29 84.7 °F 64.4 °F 29.9 in NE 9.1 mph 18.4 mph 50.4% 0 in
20:34 84.6 °F 64.6 °F 29.9 in NE 8.7 mph 18 mph 51.2% 0 in
20:39 84.4 °F 64.8 °F 29.9 in NE 8.8 mph 17.3 mph 52% 0 in
20:44 84.4 °F 64.8 °F 29.9 in NE 9.2 mph 17 mph 52% 0 in
20:49 84.2 °F 64.6 °F 29.9 in NE 9.2 mph 18.4 mph 52% 0 in
20:54 84 °F 64.6 °F 29.9 in NE 9.2 mph 18.4 mph 52% 0 in
20:59 83.8 °F 64.9 °F 29.9 in NE 9.5 mph 18 mph 52.9% 0 in
21:04 83.7 °F 64.8 °F 29.9 in NE 10.2 mph 16.1 mph 53% 0 in
21:09 83.7 °F 65.1 °F 29.9 in NE 10.1 mph 16 mph 53.7% 0 in
21:14 83.5 °F 65.1 °F 29.9 in NE 9.7 mph 15 mph 54.3% 0 in
21:19 83.1 °F 65.3 °F 29.9 in NE 9.3 mph 15 mph 55% 0 in
21:24 82.9 °F 65.5 °F 29.9 in NE 8.1 mph 12.7 mph 55.6% 0 in
21:29 82.8 °F 65.7 °F 29.9 in NE 7.9 mph 13.5 mph 56.2% 0 in
21:34 82.6 °F 65.8 °F 29.9 in NE 7.4 mph 14 mph 57% 0 in
21:39 82.4 °F 66 °F 29.9 in NE 7.7 mph 16.1 mph 57.7% 0 in
21:44 82 °F 66.2 °F 29.9 in NE 8.7 mph 16 mph 58.7% 0 in
21:49 82 °F 66.2 °F 30 in NE 9.1 mph 17.3 mph 59% 0 in
21:54 81.9 °F 66.6 °F 30 in NE 10 mph 17.3 mph 59.9% 0 in
21:59 81.7 °F 66.4 °F 30 in NE 10 mph 17.3 mph 60% 0 in
22:04 81.5 °F 66.4 °F 30 in NE 10 mph 17 mph 60% 0 in
22:09 81.3 °F 66.2 °F 30 in NE 9.8 mph 15 mph 60.2% 0 in
22:14 81.3 °F 66.6 °F 30 in NE 9.2 mph 15 mph 61% 0 in
22:19 81.1 °F 66.4 °F 30 in NE 8.9 mph 14 mph 61% 0 in
22:24 81.1 °F 66.4 °F 30 in NE 8.1 mph 13.8 mph 61% 0 in
22:29 81 °F 66.2 °F 30 in NE 8 mph 14 mph 61% 0 in
22:34 81 °F 66.2 °F 30 in NE 7.6 mph 13 mph 61% 0 in
22:39 81 °F 66.2 °F 30 in NE 7.4 mph 11.5 mph 61% 0 in
22:44 80.8 °F 66 °F 30 in NE 6.9 mph 12 mph 61% 0 in
22:49 80.8 °F 66.2 °F 30 in NE 6.9 mph 12 mph 61% 0 in
22:54 80.8 °F 66 °F 30 in NE 6.9 mph 12 mph 61.1% 0 in
22:59 80.6 °F 66.2 °F 30 in NE 7 mph 12 mph 61.7% 0 in
23:04 80.4 °F 66.2 °F 30 in NE 7.4 mph 10.4 mph 62% 0 in
23:09 80.4 °F 66.2 °F 30 in NE 7 mph 10.2 mph 62% 0 in
23:14 80.2 °F 66 °F 30 in NE 5.9 mph 10.4 mph 62% 0 in
23:19 80.2 °F 66 °F 30 in NE 6 mph 10 mph 62% 0 in
23:24 80.1 °F 65.8 °F 30 in NE 6.2 mph 9.2 mph 62% 0 in
23:29 80.1 °F 65.8 °F 30 in NE 6 mph 10.4 mph 62% 0 in
23:34 80.1 °F 65.8 °F 30 in NE 5.4 mph 10.4 mph 62% 0 in
23:39 80.1 °F 65.7 °F 30 in NNE 5.4 mph 10.4 mph 61.6% 0 in
23:44 80.1 °F 65.5 °F 30 in NE 5.4 mph 10 mph 61% 0 in
23:49 80.1 °F 65.5 °F 30 in NE 5.3 mph 13.8 mph 61% 0 in
23:54 80.1 °F 65.5 °F 30 in NE 5.2 mph 14 mph 61% 0 in
23:59 80.1 °F 65.5 °F 30 in NE 5 mph 9 mph 61% 0 in
Murcia-Puente Tocinos, España
Compliments of Weather Underground - 2.75 mb

La estación de MeteoMurcia.com, publica sus datos en los siguientes proyectos:

Weather Underground PWS IMURCIAP2 Meteoclimatic www.awekas.at

W3Counter
Web Analytics